Time;durP1;ratioP1;P1;durP2;ratioP2;P2;SDS_P1;SDS_P2;PMS_P1;PMS_P2;Temp;Humidity;BMP_temperature;BMP_pressure;BME280_temperature;BME280_humidity;BME280_pressure;Samples;Min_cycle;Max_cycle;Signal;HPM_P1;HPM_P2
2021/07/06 00:02:24;;;;;;;14.48;2.65;;;;;;;18.35;85.43;98458.84;5037032;28;20024;-82
2021/07/06 00:04:55;;;;;;;23.63;3.33;;;;;;;18.43;84.96;98461.31;5037258;28;20384;-82
2021/07/06 00:07:21;;;;;;;23.83;3.38;;;;;;;18.22;85.54;98463.09;5038967;28;20031;-82
2021/07/06 00:09:47;;;;;;;17.30;3.33;;;;;;;18.02;85.94;98459.59;5037671;28;20033;-82
2021/07/06 00:12:13;;;;;;;31.13;4.43;;;;;;;17.90;84.53;98461.19;5038062;28;20022;-81
2021/07/06 00:14:38;;;;;;;38.42;6.57;;;;;;;17.51;85.17;98465.28;5038742;28;20018;-82
2021/07/06 00:17:05;;;;;;;31.73;4.18;;;;;;;17.60;84.25;98451.66;5058037;28;20006;-80
2021/07/06 00:19:30;;;;;;;30.45;4.97;;;;;;;17.79;83.25;98460.72;5062769;28;20400;-81
2021/07/06 00:21:55;;;;;;;27.85;5.18;;;;;;;17.86;82.42;98458.09;5067271;28;20020;-81
2021/07/06 00:24:21;;;;;;;39.58;4.90;;;;;;;17.74;82.78;98451.72;5082864;28;20040;-81
2021/07/06 00:26:46;;;;;;;26.40;4.28;;;;;;;17.78;81.66;98448.44;5083077;28;20028;-82
2021/07/06 00:29:11;;;;;;;27.85;4.50;;;;;;;17.70;82.73;98445.97;5082990;28;20013;-81
2021/07/06 00:31:37;;;;;;;32.67;5.20;;;;;;;17.56;83.27;98438.97;5057056;28;20021;-84
2021/07/06 00:34:02;;;;;;;30.98;5.18;;;;;;;17.58;82.94;98443.06;5061622;28;20030;-82
2021/07/06 00:36:27;;;;;;;40.17;5.22;;;;;;;17.62;81.13;98433.69;5063436;28;20041;-81
2021/07/06 00:38:53;;;;;;;29.48;4.85;;;;;;;17.76;81.22;98429.25;5078854;28;20043;-81
2021/07/06 00:41:18;;;;;;;32.88;5.20;;;;;;;17.87;80.98;98430.56;5063205;28;20073;-81
2021/07/06 00:43:44;;;;;;;29.50;5.75;;;;;;;17.75;80.54;98438.25;5063018;28;20016;-82
2021/07/06 00:46:09;;;;;;;29.90;4.97;;;;;;;17.70;81.94;98435.34;5062977;28;20016;-81
2021/07/06 00:48:35;;;;;;;38.70;4.72;;;;;;;17.66;82.37;98428.00;5061975;28;20032;-81
2021/07/06 00:51:00;;;;;;;30.77;5.80;;;;;;;17.76;81.34;98428.44;5053805;28;20082;-82
2021/07/06 00:53:26;;;;;;;25.92;4.53;;;;;;;17.74;82.37;98420.66;5064932;28;20026;-81
2021/07/06 00:55:55;;;;;;;33.58;5.68;;;;;;;17.75;81.58;98417.00;5082535;28;20017;-82
2021/07/06 00:58:20;;;;;;;26.92;4.68;;;;;;;17.76;82.84;98410.66;5083076;28;20013;-81
2021/07/06 01:00:46;;;;;;;39.25;8.00;;;;;;;17.70;82.24;98413.31;5082422;28;20029;-81
2021/07/06 01:03:12;;;;;;;38.55;5.25;;;;;;;17.74;82.54;98404.75;5054788;28;20030;-81
2021/07/06 01:05:39;;;;;;;37.65;6.38;;;;;;;17.70;81.19;98403.50;5035785;28;20029;-81
2021/07/06 01:08:07;;;;;;;28.98;4.90;;;;;;;17.74;82.75;98388.00;5035352;28;20037;-82
2021/07/06 01:10:33;;;;;;;31.52;6.18;;;;;;;17.74;82.21;98390.66;5035603;28;20555;-81
2021/07/06 01:12:59;;;;;;;32.28;5.28;;;;;;;17.74;82.44;98401.28;5034891;28;20029;-81
2021/07/06 01:15:28;;;;;;;29.77;4.90;;;;;;;17.74;82.50;98403.94;5035447;28;20476;-81
2021/07/06 01:18:18;;;;;;;34.78;5.22;;;;;;;17.83;80.81;98387.66;5035287;28;20021;-81
2021/07/06 01:20:52;;;;;;;26.13;5.10;;;;;;;17.84;81.77;98383.97;5032150;28;20040;-81
2021/07/06 01:23:21;;;;;;;26.20;4.35;;;;;;;17.76;81.97;98381.47;5037405;28;20022;-82
2021/07/06 01:25:48;;;;;;;29.95;4.38;;;;;;;17.77;82.57;98372.50;5054735;28;20029;-82
2021/07/06 01:28:14;;;;;;;37.10;5.57;;;;;;;17.78;83.39;98373.31;5054354;28;20383;-81
2021/07/06 01:30:39;;;;;;;23.70;4.05;;;;;;;17.82;82.97;98370.03;5053863;28;20021;-82
2021/07/06 01:33:06;;;;;;;30.63;4.75;;;;;;;17.82;82.55;98364.75;5053699;28;20032;-82
2021/07/06 01:35:32;;;;;;;28.25;5.93;;;;;;;17.80;82.73;98365.97;5053709;28;20025;-82
2021/07/06 01:38:03;;;;;;;20.88;3.92;;;;;;;17.78;83.71;98366.16;5053060;28;20037;-82
2021/07/06 01:40:30;;;;;;;33.35;5.10;;;;;;;17.84;83.56;98361.91;5053781;28;20028;-81
2021/07/06 01:42:57;;;;;;;33.17;5.78;;;;;;;17.74;83.34;98362.28;5054156;28;20440;-81
2021/07/06 01:45:25;;;;;;;37.97;5.47;;;;;;;17.69;82.13;98354.09;5053416;28;20028;-81
2021/07/06 01:47:53;;;;;;;28.15;4.53;;;;;;;17.64;83.54;98348.56;5053578;28;20487;-81
2021/07/06 01:50:24;;;;;;;30.55;5.25;;;;;;;17.66;82.57;98340.41;5053677;28;20078;-81
2021/07/06 01:52:53;;;;;;;32.35;5.13;;;;;;;17.68;83.17;98343.69;5050024;28;20128;-81
2021/07/06 01:55:21;;;;;;;31.25;4.93;;;;;;;17.55;83.13;98344.47;5033535;28;20060;-81
2021/07/06 01:57:48;;;;;;;33.30;5.28;;;;;;;17.66;83.24;98332.47;5033538;28;20550;-81
2021/07/06 02:00:16;;;;;;;33.75;4.53;;;;;;;17.58;82.90;98336.09;5033346;28;20535;-81
2021/07/06 02:02:43;;;;;;;28.48;4.97;;;;;;;17.52;83.16;98340.38;5033209;28;20014;-81
2021/07/06 02:05:14;;;;;;;24.58;4.35;;;;;;;17.49;82.97;98343.41;5033533;28;20125;-81
2021/07/06 02:07:41;;;;;;;24.83;4.60;;;;;;;17.51;83.90;98346.69;5036953;28;20175;-81
2021/07/06 02:10:07;;;;;;;31.63;5.55;;;;;;;17.45;83.66;98336.88;5045189;28;20383;-81
2021/07/06 02:12:33;;;;;;;23.58;4.13;;;;;;;17.50;84.22;98333.66;5032943;28;20061;-82
2021/07/06 02:14:59;;;;;;;33.53;6.47;;;;;;;17.51;83.26;98340.56;5033208;28;20061;-81
2021/07/06 02:17:25;;;;;;;20.95;3.95;;;;;;;17.43;83.41;98334.41;5032186;28;20063;-81
2021/07/06 02:19:50;;;;;;;29.95;3.92;;;;;;;17.34;83.94;98334.81;5033074;28;20029;-81
2021/07/06 02:22:16;;;;;;;22.50;3.92;;;;;;;17.41;83.09;98331.13;5033061;28;20112;-81
2021/07/06 02:24:42;;;;;;;25.35;4.20;;;;;;;17.35;82.62;98326.63;5052880;28;20036;-81
2021/07/06 02:27:07;;;;;;;17.38;3.13;;;;;;;17.34;82.06;98326.84;5052867;28;20493;-81
2021/07/06 02:29:32;;;;;;;21.13;4.47;;;;;;;17.18;81.44;98323.53;5052971;28;20036;-81
2021/07/06 02:31:58;;;;;;;16.45;4.72;;;;;;;17.29;81.57;98311.50;5051809;28;20035;-81
2021/07/06 02:34:23;;;;;;;24.10;3.45;;;;;;;17.25;80.33;98304.97;5052756;28;20033;-81
2021/07/06 02:36:48;;;;;;;14.88;2.58;;;;;;;17.15;81.45;98304.53;5052917;28;20036;-82
2021/07/06 02:39:14;;;;;;;15.25;2.58;;;;;;;17.01;82.15;98304.47;5052571;28;20396;-81
2021/07/06 02:41:39;;;;;;;11.10;2.22;;;;;;;16.94;82.02;98303.66;5052372;28;20025;-82
2021/07/06 02:44:05;;;;;;;18.45;2.58;;;;;;;16.90;82.42;98297.06;5038209;28;20079;-82
2021/07/06 02:46:30;;;;;;;18.00;3.05;;;;;;;16.88;81.67;98293.78;5032358;28;20029;-81
2021/07/06 02:48:55;;;;;;;21.63;3.40;;;;;;;16.81;81.48;98288.47;5032500;28;20387;-82
2021/07/06 02:51:21;;;;;;;12.30;2.30;;;;;;;16.90;81.49;98289.13;5036889;28;20033;-81
2021/07/06 02:53:47;;;;;;;21.92;3.80;;;;;;;16.78;81.07;98286.19;5052249;28;20070;-82
2021/07/06 02:56:13;;;;;;;18.48;3.97;;;;;;;16.69;82.00;98286.56;5052273;28;20033;-81
2021/07/06 02:58:38;;;;;;;16.17;3.22;;;;;;;16.57;80.46;98278.34;5052180;28;20025;-81
2021/07/06 03:01:04;;;;;;;14.85;2.72;;;;;;;16.47;81.33;98286.63;5052369;28;20029;-81
2021/07/06 03:03:29;;;;;;;16.58;2.08;;;;;;;16.23;80.16;98280.75;5052167;28;20056;-81
2021/07/06 03:05:54;;;;;;;17.15;2.70;;;;;;;16.11;81.32;98273.53;5049047;28;20515;-81
2021/07/06 03:08:20;;;;;;;16.65;3.55;;;;;;;16.13;81.86;98269.66;5038564;28;20033;-81
2021/07/06 03:10:45;;;;;;;16.33;2.25;;;;;;;16.07;80.44;98270.44;5051911;28;20028;-81
2021/07/06 03:13:10;;;;;;;13.35;1.90;;;;;;;16.03;81.53;98274.47;5051867;28;20036;-81
2021/07/06 03:15:37;;;;;;;11.40;1.77;;;;;;;15.89;81.33;98276.19;5052089;28;20364;-81
2021/07/06 03:18:05;;;;;;;16.65;2.85;;;;;;;15.74;81.25;98276.28;5051881;28;20032;-81
2021/07/06 03:20:32;;;;;;;11.50;2.38;;;;;;;15.70;81.20;98275.00;5051982;28;20020;-81
2021/07/06 03:22:58;;;;;;;14.10;2.33;;;;;;;15.62;80.27;98272.44;5046360;28;20037;-81
2021/07/06 03:25:26;;;;;;;12.73;2.17;;;;;;;15.64;80.78;98266.00;5040885;28;20427;-81
2021/07/06 03:27:52;;;;;;;12.20;2.25;;;;;;;15.68;80.99;98271.72;5051380;28;20056;-81
2021/07/06 03:30:24;;;;;;;18.90;2.72;;;;;;;15.56;81.84;98268.75;5051918;28;20035;-81
2021/07/06 03:32:52;;;;;;;22.50;2.05;;;;;;;15.31;83.09;98263.00;5050389;28;20043;-81
2021/07/06 03:35:18;;;;;;;22.17;4.15;;;;;;;15.45;83.46;98262.13;5051640;28;20036;-81
2021/07/06 03:37:43;;;;;;;12.63;1.95;;;;;;;15.51;82.42;98254.47;5051718;28;20024;-81
2021/07/06 03:40:10;;;;;;;12.65;2.28;;;;;;;15.52;82.86;98259.56;5042277;28;20029;-81
2021/07/06 03:42:37;;;;;;;16.60;2.85;;;;;;;15.53;84.10;98260.38;5031565;28;20029;-81
2021/07/06 03:45:04;;;;;;;12.27;2.05;;;;;;;15.60;84.25;98262.09;5030536;28;20375;-82
2021/07/06 03:47:30;;;;;;;12.65;2.55;;;;;;;15.65;83.91;98261.50;5031603;28;20025;-82
2021/07/06 03:49:55;;;;;;;17.08;2.63;;;;;;;15.72;84.83;98266.84;5031596;28;20033;-82
2021/07/06 03:52:21;;;;;;;10.95;2.13;;;;;;;15.81;85.10;98266.56;5031440;28;20079;-81
2021/07/06 03:54:46;;;;;;;12.57;2.03;;;;;;;15.86;85.01;98266.00;5032561;28;20025;-82
2021/07/06 03:57:11;;;;;;;13.82;3.00;;;;;;;15.83;84.76;98271.66;5031605;28;20095;-82
2021/07/06 03:59:37;;;;;;;15.05;2.70;;;;;;;15.84;85.07;98276.78;5045902;28;20075;-82
2021/07/06 04:02:02;;;;;;;18.75;3.72;;;;;;;15.90;86.44;98277.84;5051355;28;20119;-82
2021/07/06 04:04:27;;;;;;;15.68;2.50;;;;;;;15.96;85.67;98277.09;5051517;28;20103;-82
2021/07/06 04:06:53;;;;;;;15.00;3.25;;;;;;;15.98;86.47;98284.84;5051463;28;20104;-81
2021/07/06 04:09:18;;;;;;;16.08;2.40;;;;;;;16.13;86.70;98285.56;5051221;28;20060;-82
2021/07/06 04:11:44;;;;;;;20.42;2.28;;;;;;;16.20;86.53;98290.91;5050970;28;20025;-82
2021/07/06 04:14:10;;;;;;;16.42;2.92;;;;;;;16.26;86.95;98285.66;5038332;28;20033;-82
2021/07/06 04:16:36;;;;;;;13.63;2.22;;;;;;;16.39;85.80;98292.06;5031512;28;20013;-82
2021/07/06 04:19:02;;;;;;;12.80;2.10;;;;;;;16.48;85.90;98296.19;5031300;28;20479;-82
2021/07/06 04:21:28;;;;;;;13.32;2.60;;;;;;;16.56;86.08;98289.94;5031310;28;20079;-82
2021/07/06 04:23:53;;;;;;;11.98;2.65;;;;;;;16.56;85.18;98290.75;5031175;28;20018;-82
2021/07/06 04:26:19;;;;;;;11.30;2.28;;;;;;;16.61;85.81;98290.19;5030079;28;20026;-82
2021/07/06 04:28:45;;;;;;;27.33;3.67;;;;;;;16.51;86.70;98298.47;5042462;28;20036;-82
2021/07/06 04:31:10;;;;;;;20.63;3.97;;;;;;;16.52;86.27;98299.28;5051038;28;20051;-82
2021/07/06 04:33:35;;;;;;;14.25;2.97;;;;;;;16.58;86.96;98294.00;5051087;28;20356;-82
2021/07/06 04:36:01;;;;;;;10.52;2.25;;;;;;;16.72;85.86;98288.81;5051240;28;20017;-81
2021/07/06 04:38:26;;;;;;;13.60;2.45;;;;;;;16.80;86.31;98291.28;5051566;28;20467;-82
2021/07/06 04:40:52;;;;;;;12.02;2.47;;;;;;;16.81;85.31;98299.06;5053390;28;20025;-82
2021/07/06 04:43:18;;;;;;;13.60;2.60;;;;;;;16.90;85.68;98298.91;5053695;28;20036;-82
2021/07/06 04:45:43;;;;;;;18.10;2.20;;;;;;;16.95;85.43;98299.16;5054392;28;20408;-82
2021/07/06 04:48:10;;;;;;;10.27;2.03;;;;;;;16.96;85.78;98298.97;5054785;28;20128;-82
2021/07/06 04:50:36;;;;;;;13.65;2.25;;;;;;;17.00;85.16;98296.72;5054694;28;20098;-82
2021/07/06 04:53:02;;;;;;;10.40;2.08;;;;;;;16.99;85.06;98306.50;5054243;28;20442;-82
2021/07/06 04:55:27;;;;;;;9.40;2.20;;;;;;;17.09;84.95;98310.63;5054810;28;20475;-82
2021/07/06 04:57:53;;;;;;;13.93;2.45;;;;;;;17.14;84.23;98308.19;5052978;28;20027;-82
2021/07/06 05:00:18;;;;;;;6.32;1.67;;;;;;;17.17;84.25;98321.88;5051533;28;20037;-82
2021/07/06 05:02:45;;;;;;;13.43;2.50;;;;;;;17.16;84.35;98330.03;5054233;28;20053;-82
2021/07/06 05:05:11;;;;;;;11.82;1.98;;;;;;;17.10;84.16;98328.16;5054321;28;20025;-82
2021/07/06 05:07:36;;;;;;;12.90;1.55;;;;;;;17.07;82.42;98336.53;5054148;28;20454;-82
2021/07/06 05:10:07;;;;;;;16.98;2.45;;;;;;;16.96;82.86;98337.88;5054329;28;20173;-82
2021/07/06 05:12:33;;;;;;;10.27;1.83;;;;;;;16.88;82.32;98344.16;5054016;28;20490;-82
2021/07/06 05:14:58;;;;;;;13.90;2.45;;;;;;;16.81;82.35;98359.19;5051269;28;20037;-82
2021/07/06 05:17:23;;;;;;;15.23;2.38;;;;;;;16.64;83.27;98351.53;5036129;28;20104;-82
2021/07/06 05:19:49;;;;;;;15.07;2.78;;;;;;;16.83;83.73;98359.84;5034186;28;20025;-82
2021/07/06 05:22:14;;;;;;;11.68;2.42;;;;;;;16.82;82.69;98364.34;5034070;28;20510;-82
2021/07/06 05:24:40;;;;;;;6.65;1.95;;;;;;;16.88;83.10;98367.22;5034039;28;20025;-82
2021/07/06 05:27:05;;;;;;;16.00;2.92;;;;;;;16.75;82.83;98373.22;5033967;28;20021;-82
2021/07/06 05:29:31;;;;;;;14.02;2.65;;;;;;;16.89;83.60;98380.28;5033979;28;20079;-82
2021/07/06 05:31:56;;;;;;;16.33;2.13;;;;;;;17.03;82.81;98381.97;5045131;28;20025;-82
2021/07/06 05:34:21;;;;;;;14.48;2.42;;;;;;;17.17;82.34;98387.34;5053920;28;20059;-82
2021/07/06 05:36:48;;;;;;;15.75;2.85;;;;;;;17.21;79.80;98384.09;5053750;28;20484;-82
2021/07/06 05:39:13;;;;;;;13.35;3.78;;;;;;;17.23;79.92;98386.56;5053708;28;20039;-82
2021/07/06 05:41:39;;;;;;;15.48;2.25;;;;;;;17.51;80.49;98393.63;5053658;28;20108;-82
2021/07/06 05:44:07;;;;;;;22.80;3.42;;;;;;;17.68;78.31;98407.38;5053725;28;20032;-82
2021/07/06 05:46:33;;;;;;;16.63;2.92;;;;;;;17.92;78.72;98400.75;5043776;28;20491;-82
2021/07/06 05:48:58;;;;;;;16.60;2.78;;;;;;;17.96;76.46;98396.66;5033906;28;20109;-82
2021/07/06 05:51:23;;;;;;;23.10;3.45;;;;;;;18.00;78.04;98397.91;5033170;28;20034;-82
2021/07/06 05:53:50;;;;;;;12.05;2.42;;;;;;;18.11;77.03;98407.94;5033557;28;20025;-82
2021/07/06 05:56:19;;;;;;;11.43;2.65;;;;;;;18.13;75.29;98416.53;5048703;28;20040;-82
2021/07/06 05:58:46;;;;;;;16.20;2.42;;;;;;;17.68;76.54;98415.34;5033486;28;20029;-82
2021/07/06 06:01:11;;;;;;;12.88;2.63;;;;;;;18.04;78.03;98425.69;5034464;28;20030;-82
2021/07/06 06:03:37;;;;;;;13.23;2.47;;;;;;;18.12;77.32;98422.84;5042166;28;20034;-82
2021/07/06 06:06:02;;;;;;;24.55;3.15;;;;;;;17.86;78.27;98428.09;5033541;28;20124;-82
2021/07/06 06:08:28;;;;;;;20.75;3.47;;;;;;;18.08;76.48;98434.06;5033505;28;20383;-82
2021/07/06 06:10:53;;;;;;;19.90;4.05;;;;;;;17.67;78.87;98441.03;5033773;28;20029;-82
2021/07/06 06:13:19;;;;;;;23.48;2.90;;;;;;;18.04;77.85;98438.97;5033285;28;20025;-82
2021/07/06 06:15:44;;;;;;;26.75;3.05;;;;;;;18.26;76.64;98438.81;5033198;28;20609;-82
2021/07/06 06:18:09;;;;;;;16.60;2.80;;;;;;;18.33;75.12;98437.78;5033771;28;20033;-82
2021/07/06 06:20:35;;;;;;;23.50;3.28;;;;;;;18.24;75.68;98439.81;5033147;28;20022;-82
2021/07/06 06:23:01;;;;;;;21.75;2.67;;;;;;;18.61;75.82;98442.91;5033141;28;20536;-82
2021/07/06 06:25:26;;;;;;;20.27;3.20;;;;;;;18.80;74.74;98451.16;5033326;28;20022;-83
2021/07/06 06:27:52;;;;;;;27.73;4.07;;;;;;;19.36;72.13;98450.63;5044135;28;20029;-82
2021/07/06 06:30:19;;;;;;;15.15;2.63;;;;;;;19.46;71.71;98446.72;5052812;28;20475;-83
2021/07/06 06:32:44;;;;;;;17.83;3.22;;;;;;;20.05;70.33;98453.69;5044567;28;20032;-83
2021/07/06 06:35:10;;;;;;;13.50;2.15;;;;;;;20.08;67.55;98453.22;5046392;28;20067;-83
2021/07/06 06:37:36;;;;;;;13.35;2.25;;;;;;;20.91;64.93;98462.97;5045656;28;20593;-83
2021/07/06 06:40:01;;;;;;;11.52;2.30;;;;;;;21.09;65.09;98464.84;5057071;28;20120;-83
2021/07/06 06:42:26;;;;;;;16.65;2.40;;;;;;;21.50;63.76;98470.59;5043719;28;20021;-83
2021/07/06 06:44:52;;;;;;;21.33;2.05;;;;;;;21.52;62.92;98469.34;5049223;28;20025;-83
2021/07/06 06:47:18;;;;;;;12.77;3.55;;;;;;;21.66;64.11;98485.22;5051770;28;20487;-83
2021/07/06 06:49:43;;;;;;;9.60;1.80;;;;;;;21.59;62.13;98488.78;5049776;28;20095;-83
2021/07/06 06:52:08;;;;;;;11.02;1.80;;;;;;;21.99;62.34;98490.16;5043659;28;20112;-83
2021/07/06 06:54:34;;;;;;;14.65;2.33;;;;;;;22.39;60.34;98492.31;5048034;28;20468;-83
2021/07/06 06:57:00;;;;;;;10.73;2.00;;;;;;;23.19;59.39;98492.97;5035571;28;20072;-83
2021/07/06 06:59:25;;;;;;;9.75;2.05;;;;;;;23.80;57.68;98498.84;5042846;28;20425;-84
2021/07/06 07:02:16;;;;;;;12.18;2.00;;;;;;;24.05;56.54;98499.38;5034248;28;20029;-84
2021/07/06 07:04:37;;;;;;;12.23;1.95;;;;;;;24.25;55.25;98511.50;5048952;28;20037;-84
2021/07/06 07:07:03;;;;;;;12.70;1.90;;;;;;;23.64;56.03;98511.91;5042893;28;20057;-83
2021/07/06 07:09:28;;;;;;;12.32;2.40;;;;;;;24.23;55.97;98513.63;5038001;28;20590;-83
2021/07/06 07:11:53;;;;;;;9.98;1.70;;;;;;;23.56;56.07;98517.63;5043858;28;20456;-83
2021/07/06 07:14:19;;;;;;;14.80;2.20;;;;;;;22.58;57.15;98530.53;5046077;28;20044;-87
2021/07/06 07:16:46;;;;;;;14.00;2.90;;;;;;;22.07;57.94;98529.13;5042917;28;20025;-83
2021/07/06 07:19:12;;;;;;;21.05;4.68;;;;;;;21.71;60.82;98531.59;5048103;28;20036;-83
2021/07/06 07:21:37;;;;;;;16.02;2.67;;;;;;;21.56;59.56;98531.97;5037563;28;20459;-82
2021/07/06 07:24:09;;;;;;;20.40;3.33;;;;;;;21.02;61.63;98540.66;5041269;28;20056;-82
2021/07/06 07:26:35;;;;;;;15.88;2.30;;;;;;;20.83;63.01;98551.22;5037605;28;20123;-83
2021/07/06 07:29:02;;;;;;;11.60;2.33;;;;;;;20.50;65.75;98554.91;5041926;28;20480;-83
2021/07/06 07:31:27;;;;;;;16.50;2.63;;;;;;;20.66;64.92;98560.81;5040112;28;20131;-83
2021/07/06 07:33:53;;;;;;;11.98;1.98;;;;;;;20.91;65.83;98566.16;5050100;28;20542;-83
2021/07/06 07:36:18;;;;;;;17.00;2.60;;;;;;;20.78;64.87;98570.56;5032101;28;20044;-83
2021/07/06 07:38:43;;;;;;;12.45;3.08;;;;;;;20.80;64.34;98573.81;5040663;28;20388;-82
2021/07/06 07:41:09;;;;;;;13.25;2.60;;;;;;;20.71;65.45;98584.97;5038712;28;20110;-82
2021/07/06 07:43:34;;;;;;;13.27;2.65;;;;;;;20.78;64.54;98588.41;5046816;28;20406;-82
2021/07/06 07:45:59;;;;;;;15.27;3.40;;;;;;;20.44;64.69;98595.75;5031881;28;20116;-82
2021/07/06 07:48:24;;;;;;;19.65;3.35;;;;;;;20.53;66.24;98601.66;5049245;28;20033;-82
2021/07/06 07:50:50;;;;;;;14.85;2.67;;;;;;;20.01;66.84;98606.97;5050747;28;20093;-82
2021/07/06 07:53:15;;;;;;;11.07;2.75;;;;;;;19.83;67.31;98609.47;5050784;28;20029;-82
2021/07/06 07:55:40;;;;;;;10.85;2.85;;;;;;;19.61;69.03;98617.69;5051611;28;20024;-82
2021/07/06 07:58:06;;;;;;;12.55;2.78;;;;;;;19.72;69.81;98622.38;5036422;28;20489;-82
2021/07/06 08:00:31;;;;;;;5.38;1.58;;;;;;;19.78;69.68;98629.53;5031433;28;20029;-82
2021/07/06 08:02:59;;;;;;;7.07;1.83;;;;;;;20.37;67.74;98624.28;5031285;28;20025;-82
2021/07/06 08:05:26;;;;;;;9.77;2.03;;;;;;;20.10;67.67;98632.38;5046839;28;20022;-82
2021/07/06 08:07:51;;;;;;;5.55;1.33;;;;;;;19.54;69.05;98643.47;5046809;28;20046;-82
2021/07/06 08:10:17;;;;;;;5.40;1.00;;;;;;;20.82;67.02;98645.63;5031514;28;20385;-82
2021/07/06 08:12:42;;;;;;;5.35;0.80;;;;;;;22.41;60.26;98642.66;5033490;28;20034;-82
2021/07/06 08:15:08;;;;;;;3.90;0.93;;;;;;;22.17;58.88;98658.50;5051307;28;20482;-82
2021/07/06 08:17:34;;;;;;;2.45;0.60;;;;;;;22.48;58.96;98670.13;5055277;28;20031;-82
2021/07/06 08:19:59;;;;;;;2.17;0.40;;;;;;;23.43;54.98;98674.00;5055382;28;20075;-82
2021/07/06 08:22:25;;;;;;;2.50;0.65;;;;;;;22.93;57.20;98679.66;5055142;28;20021;-82
2021/07/06 08:24:52;;;;;;;2.15;0.22;;;;;;;22.58;56.64;98681.13;5055302;28;20028;-82
2021/07/06 08:27:17;;;;;;;0.80;0.20;;;;;;;22.84;54.89;98679.16;5055190;28;20025;-82
2021/07/06 08:29:43;;;;;;;1.30;0.25;;;;;;;22.48;56.37;98691.53;5038926;28;20040;-82
2021/07/06 08:32:08;;;;;;;0.47;0.10;;;;;;;21.79;58.41;98690.75;5035360;28;20029;-82
2021/07/06 08:34:33;;;;;;;8.68;0.50;;;;;;;21.89;57.81;98690.25;5035345;28;20071;-82
2021/07/06 08:36:59;;;;;;;3.63;0.20;;;;;;;21.81;57.94;98711.91;5050543;28;20483;-82
2021/07/06 08:39:24;;;;;;;1.85;0.30;;;;;;;21.86;57.77;98715.56;5035059;28;20108;-82
2021/07/06 08:41:50;;;;;;;4.68;0.60;;;;;;;21.25;58.28;98722.34;5033606;28;20033;-82
2021/07/06 08:44:16;;;;;;;1.45;0.20;;;;;;;21.07;59.44;98727.56;5048484;28;20023;-82
2021/07/06 08:46:42;;;;;;;1.85;0.25;;;;;;;21.22;60.26;98744.13;5055597;28;20056;-82
2021/07/06 08:49:11;;;;;;;0.30;0.25;;;;;;;21.57;58.25;98743.75;5054894;28;20072;-82
2021/07/06 08:51:41;;;;;;;0.95;0.63;;;;;;;21.29;57.34;98752.94;5054649;28;20025;-82
2021/07/06 08:54:07;;;;;;;1.95;0.30;;;;;;;20.54;59.18;98756.06;5054868;28;20032;-82
2021/07/06 08:56:32;;;;;;;1.75;0.47;;;;;;;21.10;58.77;98767.19;5054682;28;20021;-82
2021/07/06 08:58:57;;;;;;;0.82;0.32;;;;;;;21.35;57.68;98778.75;5040299;28;20033;-82
2021/07/06 09:01:27;;;;;;;2.22;0.50;;;;;;;20.96;58.69;98782.44;5034664;28;20034;-82
2021/07/06 09:03:58;;;;;;;2.63;0.45;;;;;;;20.45;60.72;98777.84;5035562;28;20151;-82
2021/07/06 09:06:25;;;;;;;3.85;0.77;;;;;;;20.82;62.45;98791.53;5034506;28;20048;-82
2021/07/06 09:08:52;;;;;;;1.33;0.70;;;;;;;21.96;60.54;98798.72;5045308;28;20037;-83
2021/07/06 09:11:21;;;;;;;3.67;0.82;;;;;;;21.83;56.15;98806.84;5037555;28;20380;-83
2021/07/06 09:13:48;;;;;;;2.65;1.13;;;;;;;22.33;56.90;98816.75;5046670;28;20104;-83
2021/07/06 09:16:26;;;;;;;2.67;1.00;;;;;;;22.20;55.53;98814.19;5035484;28;20036;-83
2021/07/06 09:18:52;;;;;;;3.08;0.80;;;;;;;22.17;54.65;98818.91;5050804;28;20030;-83
2021/07/06 09:21:17;;;;;;;3.78;1.20;;;;;;;21.91;56.57;98824.47;5039128;28;20395;-83
2021/07/06 09:23:49;;;;;;;4.53;1.00;;;;;;;21.24;56.50;98846.16;5039749;28;20025;-83
2021/07/06 09:26:25;;;;;;;4.82;1.00;;;;;;;21.54;57.60;98837.63;5051173;28;20563;-83
2021/07/06 09:28:56;;;;;;;4.75;0.95;;;;;;;22.02;55.27;98844.31;5042360;28;20490;-83
2021/07/06 09:31:32;;;;;;;3.47;1.20;;;;;;;22.11;54.87;98859.06;5053137;28;20049;-83
2021/07/06 09:34:00;;;;;;;5.93;1.27;;;;;;;22.54;54.57;98851.09;5045041;28;20033;-82
2021/07/06 09:36:47;;;;;;;4.80;1.30;;;;;;;22.31;53.58;98862.41;5041842;28;20021;-83
2021/07/06 09:39:12;;;;;;;3.95;1.20;;;;;;;21.67;54.20;98876.81;5035153;28;20059;-82
2021/07/06 09:41:40;;;;;;;6.07;1.83;;;;;;;22.60;53.24;98884.19;5038518;28;20434;-83
2021/07/06 09:44:24;;;;;;;7.35;1.27;;;;;;;23.71;51.62;98876.97;5033830;28;20092;-83
2021/07/06 09:46:55;;;;;;;5.20;0.90;;;;;;;22.96;52.44;98880.72;5033643;28;20030;-83
2021/07/06 09:49:26;;;;;;;3.15;1.00;;;;;;;24.52;50.65;98882.81;5033784;28;20029;-83
2021/07/06 09:51:52;;;;;;;4.55;1.25;;;;;;;24.84;47.14;98895.91;5038614;28;20033;-83
2021/07/06 09:54:32;;;;;;;5.78;1.20;;;;;;;25.27;47.92;98893.88;5053670;28;20108;-83
2021/07/06 09:57:19;;;;;;;4.68;1.30;;;;;;;24.68;47.96;98899.28;5033716;28;20364;-83
2021/07/06 10:00:10;;;;;;;4.68;1.13;;;;;;;23.67;49.91;98910.63;5033592;28;20529;-83
2021/07/06 10:02:37;;;;;;;13.13;1.15;;;;;;;24.31;47.23;98912.88;5033290;28;20026;-83
2021/07/06 10:05:11;;;;;;;5.78;1.17;;;;;;;25.50;45.87;98909.94;5033407;28;20064;-83
2021/07/06 10:07:39;;;;;;;3.40;1.08;;;;;;;25.67;44.46;98920.78;5033557;28;20383;-83
2021/07/06 10:10:12;;;;;;;3.95;0.75;;;;;;;25.75;43.64;98922.28;5038857;28;20036;-83
2021/07/06 10:12:41;;;;;;;6.38;1.23;;;;;;;25.45;44.28;98925.16;5052827;28;20021;-83
2021/07/06 10:15:09;;;;;;;10.18;1.48;;;;;;;26.56;43.55;98934.72;5036224;28;20037;-83
2021/07/06 10:17:36;;;;;;;5.78;1.02;;;;;;;27.99;42.35;98933.16;5037501;28;20036;-83
2021/07/06 10:20:04;;;;;;;4.38;1.48;;;;;;;26.67;43.47;98940.03;5046101;28;20025;-83
2021/07/06 10:22:30;;;;;;;5.65;1.33;;;;;;;25.77;44.78;98946.19;5039458;28;20023;-83
2021/07/06 10:24:59;;;;;;;6.10;0.95;;;;;;;25.58;44.31;98965.19;5052644;28;20103;-83
2021/07/06 10:27:27;;;;;;;6.70;1.13;;;;;;;24.28;45.44;98964.28;5052835;28;20030;-83
2021/07/06 10:30:41;;;;;;;3.92;0.98;;;;;;;24.22;47.54;98975.94;5052786;28;20029;-83
2021/07/06 10:33:13;;;;;;;12.68;1.42;;;;;;;23.44;48.47;98990.88;5042932;28;20037;-83
2021/07/06 10:35:42;;;;;;;6.20;1.20;;;;;;;23.40;48.14;98987.84;5051483;28;20032;-83
2021/07/06 10:38:26;;;;;;;3.97;1.05;;;;;;;23.34;46.59;98989.53;5051229;28;20067;-83
2021/07/06 10:40:56;;;;;;;5.47;1.00;;;;;;;25.12;46.87;98983.81;5052444;28;20029;-83
2021/07/06 10:43:42;;;;;;;4.70;0.68;;;;;;;26.20;41.57;98990.63;5052543;28;20021;-83
2021/07/06 10:46:19;;;;;;;4.55;1.15;;;;;;;26.89;41.36;98987.75;5051934;28;20116;-83
2021/07/06 10:48:48;;;;;;;5.82;0.80;;;;;;;27.14;41.43;98981.16;5051446;28;20045;-83
2021/07/06 10:51:38;;;;;;;7.55;2.17;;;;;;;26.73;39.87;98996.66;5038496;28;20033;-84
2021/07/06 10:54:11;;;;;;;2.97;0.68;;;;;;;26.76;42.54;98994.31;5049144;28;20403;-83
2021/07/06 10:56:47;;;;;;;5.28;2.03;;;;;;;27.27;40.57;98996.97;5047257;28;20056;-84
2021/07/06 10:59:18;;;;;;;5.07;0.70;;;;;;;27.19;38.93;98995.50;5038066;28;20031;-83
2021/07/06 11:01:52;;;;;;;10.93;1.02;;;;;;;27.56;41.10;98994.94;5044456;28;20030;-84
2021/07/06 11:04:36;;;;;;;6.15;0.80;;;;;;;27.08;41.26;99010.69;5032225;28;20021;-84
2021/07/06 11:07:02;;;;;;;14.27;1.13;;;;;;;26.81;41.15;99015.91;5033963;28;20029;-84
2021/07/06 11:09:28;;;;;;;5.32;1.08;;;;;;;25.65;42.46;99025.03;5052306;28;20529;-84
2021/07/06 11:12:19;;;;;;;3.53;0.95;;;;;;;26.90;42.31;99022.53;5051095;28;20041;-83
2021/07/06 11:15:19;;;;;;;3.78;0.80;;;;;;;27.08;40.04;99021.47;5042710;28;20537;-84
2021/07/06 11:18:07;;;;;;;5.00;0.60;;;;;;;28.01;39.90;99031.66;5035532;28;20340;-84
2021/07/06 11:20:36;;;;;;;6.32;0.70;;;;;;;27.58;38.84;99035.94;5031543;28;20036;-84
2021/07/06 11:23:03;;;;;;;4.90;0.70;;;;;;;26.78;40.92;99035.28;5031050;28;20032;-84
2021/07/06 11:25:34;;;;;;;3.60;0.70;;;;;;;27.81;38.84;99034.91;5032147;28;20105;-84
2021/07/06 11:28:01;;;;;;;2.50;0.70;;;;;;;28.69;38.79;99047.50;5031738;28;20514;-84
2021/07/06 11:30:26;;;;;;;3.33;0.95;;;;;;;28.31;38.81;99048.44;5038099;28;20532;-84